MET'MAP v2.0
soon released !

Expected late october,
this new version will be
more efficient, smarter,
and hosted on a brand new
server x3 powerfull...
...and still free !


Not compatible ?
Try the mobile version !

LOG IN : | Subscribe | Disclaimer | Who is Orbifly ? |
ICAO code :

TAF - LIPX Villafranca Int. Verona - 12 Nov 2019 06:42 UTC
Data Sources :     NOAA   


- Airport Elevation : 239 ft
- IATA code : VRN
- No reported NOTAMs.


LIPX - Villafranca Int. Verona

Latest METAR recorded : 2015/08/11 07:50 LIPX 110750Z 22003KT 180V250 CAVOK 28/14 Q1013
TAF TAF LIPX
Valid from the 12 at 06:00 until the 12 at 15:00 UTC


120500Z 1206/1215 VRB05KT 6000 RA SCT025 BKN050

Source NOAA


MET'MAP, your aeronautical weather chart ! - Copyright ORBIFLY December 2007

Programming & Development : Alexandra Zaïnal
Co-Developer : Marc-Olivier Méhu
Technical & hardware support : Manuel Goepfert
Concept & Financing : Baudouin d'Aumeries